Edina, MN (55435)

1:08 AM CDT on August 29, 2015 (GMT -0500)
Cornelia | | Change Station
CLOSE
Current Station
Personal Weather Station
Location: Edina, MN
Elevation: 860 ft
Nearby Weather Stations

Elev 860 ft 44.87 °N, 93.34 °W | Updated 0 second ago

Clear
Clear
57.6 °F
Feels Like 57.6 °F
N
0.0
Wind Variable Wind from East
Gusts 0.0 mph

Today
High -- | Low -- °F
--% Chance of Precip.
Yesterday
High -- | Low -- °F
Precip. -- in
6:31 AM 7:56 PM
Full, 100% visible
Pressure 30.04 in
Visibility 10.0 miles
Clouds Clear
Dew Point 57 °F
Humidity 98%
Rainfall 0.00 in
Snow Depth Not available.
UV 0.0 out of 12
Pollen 1.00 out of 12
Air Quality Not available.
Flu Activity Not available.
METAR KMSP 290553Z 06005KT 10SM CLR 16/13 A3004 RMK AO2 SLP170 T01560133 10200 20156 402440156 55002
Pressure 30.04 in
Visibility 10.0 miles
Clouds Clear
Dew Point 57 °F
Humidity 98%
Rainfall 0.00 in
Snow Depth Not available.
UV 0.0 out of 12
Pollen 1.00 out of 12
Air Quality Not available.
Flu Activity Not available.
METAR KMSP 290553Z 06005KT 10SM CLR 16/13 A3004 RMK AO2 SLP170 T01560133 10200 20156 402440156 55002

10-Day Weather Forecast

×

Almanac

Astronomy

Aug. 29, 2015 Rise Set
Actual Time
Civil Twilight
Nautical Twilight
Astronomical Twilight
Moon
Length of Visible Light
Length of Day
Tomorrow will be .
, % of the Moon is Illuminated

Today's Extremes

State Highs State Lows

Community

WunderPhotos

Upload Photos

1,850,622 photos uploaded!

WunderBlogs® & News

Nearby

Air Quality

  Air Quality AQ Index Pollutant
Not available.

Snow Depth

Station Depth Elevation

Earthquake Activity

City Distance Mag. Time & Date
Minimum magnitude displayed is 2.5.

Coastal Water Temperatures

Place Temperature

Stations

Nearby Weather Stations

Station Location Temp. Windchill Dew Point Humidity Wind Precip. Elev Updated Type